sensor_id;sensor_type;location;lat;lon;timestamp;pressure;altitude;pressure_sealevel;temperature;humidity
55070;BME280;40967;52.070;8.596;2023-02-14T00:02:17;102527.13;;;1.27;100.00
55070;BME280;40967;52.070;8.596;2023-02-14T00:04:43;102535.84;;;1.29;100.00
55070;BME280;40967;52.070;8.596;2023-02-14T00:07:11;102542.34;;;1.26;100.00
55070;BME280;40967;52.070;8.596;2023-02-14T00:09:37;102525.78;;;1.23;100.00
55070;BME280;40967;52.070;8.596;2023-02-14T00:12:03;102521.22;;;1.15;100.00
55070;BME280;40967;52.070;8.596;2023-02-14T00:14:28;102484.19;;;0.94;99.86
55070;BME280;40967;52.070;8.596;2023-02-14T00:17:13;102535.25;;;1.17;100.00
55070;BME280;40967;52.070;8.596;2023-02-14T00:19:38;102540.25;;;1.12;100.00
55070;BME280;40967;52.070;8.596;2023-02-14T00:22:04;102535.41;;;1.07;100.00
55070;BME280;40967;52.070;8.596;2023-02-14T00:24:29;102531.88;;;1.07;100.00
55070;BME280;40967;52.070;8.596;2023-02-14T00:26:55;102520.31;;;0.98;100.00
55070;BME280;40967;52.070;8.596;2023-02-14T00:29:23;102524.13;;;0.96;100.00
55070;BME280;40967;52.070;8.596;2023-02-14T00:31:49;102516.38;;;0.85;100.00
55070;BME280;40967;52.070;8.596;2023-02-14T00:34:16;102535.13;;;0.93;100.00
55070;BME280;40967;52.070;8.596;2023-02-14T00:36:42;102531.94;;;0.89;100.00
55070;BME280;40967;52.070;8.596;2023-02-14T00:39:09;102532.09;;;0.88;100.00
55070;BME280;40967;52.070;8.596;2023-02-14T00:41:36;102527.06;;;0.85;100.00
55070;BME280;40967;52.070;8.596;2023-02-14T00:44:01;102519.00;;;0.77;100.00
55070;BME280;40967;52.070;8.596;2023-02-14T00:46:27;102521.97;;;0.74;99.96
55070;BME280;40967;52.070;8.596;2023-02-14T00:48:53;102539.22;;;0.79;99.89
55070;BME280;40967;52.070;8.596;2023-02-14T00:51:19;102539.84;;;0.73;100.00
55070;BME280;40967;52.070;8.596;2023-02-14T00:53:46;102543.16;;;0.67;100.00
55070;BME280;40967;52.070;8.596;2023-02-14T00:56:13;102542.78;;;0.62;100.00
55070;BME280;40967;52.070;8.596;2023-02-14T00:58:39;102544.75;;;0.60;100.00
55070;BME280;40967;52.070;8.596;2023-02-14T01:01:05;102538.91;;;0.57;100.00
55070;BME280;40967;52.070;8.596;2023-02-14T01:03:31;102544.56;;;0.54;100.00
55070;BME280;40967;52.070;8.596;2023-02-14T01:05:57;102536.00;;;0.50;100.00
55070;BME280;40967;52.070;8.596;2023-02-14T01:08:23;102544.41;;;0.55;100.00
55070;BME280;40967;52.070;8.596;2023-02-14T01:10:48;102540.03;;;0.54;100.00
55070;BME280;40967;52.070;8.596;2023-02-14T01:13:14;102548.19;;;0.53;100.00
55070;BME280;40967;52.070;8.596;2023-02-14T01:15:41;102545.69;;;0.51;99.93
55070;BME280;40967;52.070;8.596;2023-02-14T01:18:08;102532.44;;;0.42;99.98
55070;BME280;40967;52.070;8.596;2023-02-14T01:20:34;102546.44;;;0.44;99.67
55070;BME280;40967;52.070;8.596;2023-02-14T01:22:59;102546.94;;;0.39;100.00
55070;BME280;40967;52.070;8.596;2023-02-14T01:25:26;102541.66;;;0.30;100.00
55070;BME280;40967;52.070;8.596;2023-02-14T01:27:51;102546.63;;;0.25;100.00
55070;BME280;40967;52.070;8.596;2023-02-14T01:30:17;102546.25;;;0.20;100.00
55070;BME280;40967;52.070;8.596;2023-02-14T01:32:43;102547.16;;;0.11;100.00
55070;BME280;40967;52.070;8.596;2023-02-14T01:35:09;102545.50;;;0.10;100.00
55070;BME280;40967;52.070;8.596;2023-02-14T01:37:34;102551.94;;;0.07;100.00
55070;BME280;40967;52.070;8.596;2023-02-14T01:40:00;102543.13;;;0.07;100.00
55070;BME280;40967;52.070;8.596;2023-02-14T01:42:26;102537.09;;;0.05;100.00
55070;BME280;40967;52.070;8.596;2023-02-14T01:45:05;102546.78;;;0.06;100.00
55070;BME280;40967;52.070;8.596;2023-02-14T01:47:34;102554.50;;;0.09;100.00
55070;BME280;40967;52.070;8.596;2023-02-14T01:50:08;102550.81;;;0.10;100.00
55070;BME280;40967;52.070;8.596;2023-02-14T01:52:38;102554.19;;;0.12;100.00
55070;BME280;40967;52.070;8.596;2023-02-14T01:55:11;102540.91;;;0.02;100.00
55070;BME280;40967;52.070;8.596;2023-02-14T01:57:45;102539.94;;;0.03;100.00
55070;BME280;40967;52.070;8.596;2023-02-14T02:00:13;102527.72;;;0.00;100.00
55070;BME280;40967;52.070;8.596;2023-02-14T02:02:58;102546.19;;;0.12;100.00
55070;BME280;40967;52.070;8.596;2023-02-14T02:05:25;102527.72;;;0.00;100.00
55070;BME280;40967;52.070;8.596;2023-02-14T02:07:51;102525.41;;;0.06;100.00
55070;BME280;40967;52.070;8.596;2023-02-14T02:10:19;102538.16;;;0.12;100.00
55070;BME280;40967;52.070;8.596;2023-02-14T02:12:45;102527.94;;;0.07;100.00
55070;BME280;40967;52.070;8.596;2023-02-14T02:15:12;102531.59;;;0.06;100.00
55070;BME280;40967;52.070;8.596;2023-02-14T02:18:02;102534.13;;;0.08;100.00
55070;BME280;40967;52.070;8.596;2023-02-14T02:38:01;102514.00;;;-0.05;100.00
55070;BME280;40967;52.070;8.596;2023-02-14T02:43:42;102507.28;;;-0.09;100.00
55070;BME280;40967;52.070;8.596;2023-02-14T02:46:35;102500.28;;;-0.10;100.00
55070;BME280;40967;52.070;8.596;2023-02-14T02:49:23;102499.44;;;-0.10;100.00
55070;BME280;40967;52.070;8.596;2023-02-14T02:52:41;102474.97;;;-0.23;100.00
55070;BME280;40967;52.070;8.596;2023-02-14T02:55:51;102500.44;;;-0.11;100.00
55070;BME280;40967;52.070;8.596;2023-02-14T02:58:58;102455.44;;;-0.24;100.00
55070;BME280;40967;52.070;8.596;2023-02-14T03:01:29;102477.84;;;-0.17;100.00
55070;BME280;40967;52.070;8.596;2023-02-14T03:04:04;102482.19;;;-0.16;100.00
55070;BME280;40967;52.070;8.596;2023-02-14T03:06:50;102468.19;;;-0.18;100.00
55070;BME280;40967;52.070;8.596;2023-02-14T03:11:50;102465.81;;;-0.21;100.00
55070;BME280;40967;52.070;8.596;2023-02-14T03:14:25;102443.66;;;-0.39;100.00
55070;BME280;40967;52.070;8.596;2023-02-14T03:17:03;102471.06;;;-0.29;100.00
55070;BME280;40967;52.070;8.596;2023-02-14T03:19:51;102469.09;;;-0.27;100.00
55070;BME280;40967;52.070;8.596;2023-02-14T03:23:03;102469.41;;;-0.30;100.00
55070;BME280;40967;52.070;8.596;2023-02-14T03:33:27;102480.34;;;-0.33;100.00
55070;BME280;40967;52.070;8.596;2023-02-14T03:36:22;102472.50;;;-0.34;100.00
55070;BME280;40967;52.070;8.596;2023-02-14T03:39:01;102467.50;;;-0.37;100.00
55070;BME280;40967;52.070;8.596;2023-02-14T03:41:34;102446.84;;;-0.53;100.00
55070;BME280;40967;52.070;8.596;2023-02-14T03:44:04;102465.41;;;-0.43;100.00
55070;BME280;40967;52.070;8.596;2023-02-14T03:46:38;102432.56;;;-0.61;100.00
55070;BME280;40967;52.070;8.596;2023-02-14T03:49:10;102435.78;;;-0.58;100.00
55070;BME280;40967;52.070;8.596;2023-02-14T03:51:37;102447.22;;;-0.48;100.00
55070;BME280;40967;52.070;8.596;2023-02-14T03:54:06;102448.06;;;-0.47;100.00
55070;BME280;40967;52.070;8.596;2023-02-14T03:56:39;102434.09;;;-0.59;100.00
55070;BME280;40967;52.070;8.596;2023-02-14T03:59:12;102439.81;;;-0.54;100.00
55070;BME280;40967;52.070;8.596;2023-02-14T04:01:46;102454.38;;;-0.48;100.00
55070;BME280;40967;52.070;8.596;2023-02-14T04:04:14;102447.38;;;-0.49;100.00
55070;BME280;40967;52.070;8.596;2023-02-14T04:06:42;102449.50;;;-0.53;100.00
55070;BME280;40967;52.070;8.596;2023-02-14T04:09:08;102456.66;;;-0.53;100.00
55070;BME280;40967;52.070;8.596;2023-02-14T04:11:33;102441.38;;;-0.61;100.00
55070;BME280;40967;52.070;8.596;2023-02-14T04:14:00;102444.38;;;-0.64;100.00
55070;BME280;40967;52.070;8.596;2023-02-14T04:16:26;102436.84;;;-0.68;100.00
55070;BME280;40967;52.070;8.596;2023-02-14T04:18:51;102449.38;;;-0.61;100.00
55070;BME280;40967;52.070;8.596;2023-02-14T04:21:35;102444.91;;;-0.60;100.00
55070;BME280;40967;52.070;8.596;2023-02-14T04:24:00;102440.03;;;-0.65;100.00
55070;BME280;40967;52.070;8.596;2023-02-14T04:26:26;102440.88;;;-0.64;100.00
55070;BME280;40967;52.070;8.596;2023-02-14T04:28:52;102437.38;;;-0.65;100.00
55070;BME280;40967;52.070;8.596;2023-02-14T04:31:17;102433.69;;;-0.64;100.00
55070;BME280;40967;52.070;8.596;2023-02-14T04:33:42;102432.03;;;-0.65;100.00
55070;BME280;40967;52.070;8.596;2023-02-14T04:36:10;102409.41;;;-0.78;100.00
55070;BME280;40967;52.070;8.596;2023-02-14T04:38:35;102406.88;;;-0.80;100.00
55070;BME280;40967;52.070;8.596;2023-02-14T04:41:01;102423.69;;;-0.79;100.00
55070;BME280;40967;52.070;8.596;2023-02-14T04:43:26;102430.28;;;-0.74;100.00
55070;BME280;40967;52.070;8.596;2023-02-14T04:45:51;102420.50;;;-0.83;100.00
55070;BME280;40967;52.070;8.596;2023-02-14T04:48:17;102417.28;;;-0.86;100.00
55070;BME280;40967;52.070;8.596;2023-02-14T04:50:42;102409.75;;;-0.91;100.00
55070;BME280;40967;52.070;8.596;2023-02-14T04:53:07;102427.25;;;-0.88;100.00
55070;BME280;40967;52.070;8.596;2023-02-14T04:55:33;102420.41;;;-0.91;100.00
55070;BME280;40967;52.070;8.596;2023-02-14T04:57:58;102425.44;;;-0.88;100.00
55070;BME280;40967;52.070;8.596;2023-02-14T05:00:24;102415.94;;;-0.90;100.00
55070;BME280;40967;52.070;8.596;2023-02-14T05:02:49;102431.63;;;-0.87;100.00
55070;BME280;40967;52.070;8.596;2023-02-14T05:05:15;102419.03;;;-0.95;100.00
55070;BME280;40967;52.070;8.596;2023-02-14T05:07:40;102430.38;;;-0.93;100.00
55070;BME280;40967;52.070;8.596;2023-02-14T05:10:11;102422.53;;;-0.94;100.00
55070;BME280;40967;52.070;8.596;2023-02-14T05:12:37;102428.72;;;-0.94;100.00
55070;BME280;40967;52.070;8.596;2023-02-14T05:15:03;102400.19;;;-1.11;100.00
55070;BME280;40967;52.070;8.596;2023-02-14T05:17:28;102431.66;;;-0.97;100.00
55070;BME280;40967;52.070;8.596;2023-02-14T05:19:54;102397.81;;;-1.14;100.00
55070;BME280;40967;52.070;8.596;2023-02-14T05:22:19;102433.78;;;-1.00;100.00
55070;BME280;40967;52.070;8.596;2023-02-14T05:24:44;102426.94;;;-1.03;100.00
55070;BME280;40967;52.070;8.596;2023-02-14T05:27:10;102419.66;;;-1.10;100.00
55070;BME280;40967;52.070;8.596;2023-02-14T05:29:36;102434.22;;;-1.05;100.00
55070;BME280;40967;52.070;8.596;2023-02-14T05:32:01;102407.69;;;-1.24;100.00
55070;BME280;40967;52.070;8.596;2023-02-14T05:34:26;102430.47;;;-1.12;100.00
55070;BME280;40967;52.070;8.596;2023-02-14T05:36:52;102436.91;;;-1.05;100.00
55070;BME280;40967;52.070;8.596;2023-02-14T05:39:19;102434.22;;;-1.05;100.00
55070;BME280;40967;52.070;8.596;2023-02-14T05:41:44;102427.50;;;-1.09;100.00
55070;BME280;40967;52.070;8.596;2023-02-14T05:44:09;102427.66;;;-1.10;100.00
55070;BME280;40967;52.070;8.596;2023-02-14T05:46:35;102432.09;;;-1.01;100.00
55070;BME280;40967;52.070;8.596;2023-02-14T05:49:03;102427.91;;;-1.04;100.00
55070;BME280;40967;52.070;8.596;2023-02-14T05:51:28;102429.44;;;-1.01;100.00
55070;BME280;40967;52.070;8.596;2023-02-14T05:53:54;102405.25;;;-1.18;100.00
55070;BME280;40967;52.070;8.596;2023-02-14T05:56:19;102424.31;;;-1.13;100.00
55070;BME280;40967;52.070;8.596;2023-02-14T05:58:45;102427.56;;;-1.19;100.00
55070;BME280;40967;52.070;8.596;2023-02-14T06:01:10;102435.09;;;-1.14;100.00
55070;BME280;40967;52.070;8.596;2023-02-14T06:03:35;102422.66;;;-1.23;100.00
55070;BME280;40967;52.070;8.596;2023-02-14T06:06:01;102440.03;;;-1.19;100.00
55070;BME280;40967;52.070;8.596;2023-02-14T06:08:26;102442.31;;;-1.24;100.00
55070;BME280;40967;52.070;8.596;2023-02-14T06:10:52;102444.13;;;-1.25;100.00
55070;BME280;40967;52.070;8.596;2023-02-14T06:13:17;102447.78;;;-1.26;100.00
55070;BME280;40967;52.070;8.596;2023-02-14T06:15:42;102440.91;;;-1.28;100.00
55070;BME280;40967;52.070;8.596;2023-02-14T06:18:08;102437.69;;;-1.32;100.00
55070;BME280;40967;52.070;8.596;2023-02-14T06:20:33;102417.00;;;-1.47;100.00
55070;BME280;40967;52.070;8.596;2023-02-14T06:23:00;102459.41;;;-1.27;100.00
55070;BME280;40967;52.070;8.596;2023-02-14T06:25:26;102446.94;;;-1.26;100.00
55070;BME280;40967;52.070;8.596;2023-02-14T06:27:54;102435.47;;;-1.36;100.00
55070;BME280;40967;52.070;8.596;2023-02-14T06:30:20;102442.22;;;-1.32;100.00
55070;BME280;40967;52.070;8.596;2023-02-14T06:32:46;102439.97;;;-1.37;100.00
55070;BME280;40967;52.070;8.596;2023-02-14T06:35:11;102452.97;;;-1.34;100.00
55070;BME280;40967;52.070;8.596;2023-02-14T06:37:38;102457.47;;;-1.34;100.00
55070;BME280;40967;52.070;8.596;2023-02-14T06:40:05;102459.44;;;-1.36;100.00
55070;BME280;40967;52.070;8.596;2023-02-14T06:50:53;102453.72;;;-1.41;100.00
55070;BME280;40967;52.070;8.596;2023-02-14T06:53:20;102462.41;;;-1.39;100.00
55070;BME280;40967;52.070;8.596;2023-02-14T06:55:46;102453.16;;;-1.45;100.00
55070;BME280;40967;52.070;8.596;2023-02-14T06:58:11;102457.91;;;-1.39;100.00
55070;BME280;40967;52.070;8.596;2023-02-14T07:00:37;102448.41;;;-1.41;100.00
55070;BME280;40967;52.070;8.596;2023-02-14T07:03:04;102450.50;;;-1.45;100.00
55070;BME280;40967;52.070;8.596;2023-02-14T07:05:30;102452.88;;;-1.42;100.00
55070;BME280;40967;52.070;8.596;2023-02-14T07:07:56;102464.22;;;-1.40;100.00
55070;BME280;40967;52.070;8.596;2023-02-14T07:10:21;102465.75;;;-1.37;100.00
55070;BME280;40967;52.070;8.596;2023-02-14T07:12:47;102464.06;;;-1.38;100.00
55070;BME280;40967;52.070;8.596;2023-02-14T07:15:12;102471.06;;;-1.37;100.00
55070;BME280;40967;52.070;8.596;2023-02-14T07:17:38;102469.09;;;-1.35;100.00
55070;BME280;40967;52.070;8.596;2023-02-14T07:20:04;102461.56;;;-1.40;100.00
55070;BME280;40967;52.070;8.596;2023-02-14T07:22:31;102460.28;;;-1.36;100.00
55070;BME280;40967;52.070;8.596;2023-02-14T07:24:57;102470.66;;;-1.33;100.00
55070;BME280;40967;52.070;8.596;2023-02-14T07:27:22;102468.69;;;-1.31;100.00
55070;BME280;40967;52.070;8.596;2023-02-14T07:29:48;102462.34;;;-1.30;100.00
55070;BME280;40967;52.070;8.596;2023-02-14T07:32:13;102448.59;;;-1.25;100.00
55070;BME280;40967;52.070;8.596;2023-02-14T07:34:39;102457.09;;;-1.12;100.00
55070;BME280;40967;52.070;8.596;2023-02-14T07:37:04;102465.47;;;-0.97;100.00
55070;BME280;40967;52.070;8.596;2023-02-14T07:39:29;102456.53;;;-0.79;100.00
55070;BME280;40967;52.070;8.596;2023-02-14T07:41:55;102452.28;;;-0.72;100.00
55070;BME280;40967;52.070;8.596;2023-02-14T07:44:20;102451.47;;;-0.55;100.00
55070;BME280;40967;52.070;8.596;2023-02-14T07:46:46;102438.69;;;-0.34;100.00
55070;BME280;40967;52.070;8.596;2023-02-14T07:49:11;102452.03;;;0.02;100.00
55070;BME280;40967;52.070;8.596;2023-02-14T07:51:36;102450.22;;;0.28;100.00
55070;BME280;40967;52.070;8.596;2023-02-14T07:54:02;102449.38;;;0.53;100.00
55070;BME280;40967;52.070;8.596;2023-02-14T07:56:27;102439.16;;;0.74;100.00
55070;BME280;40967;52.070;8.596;2023-02-14T07:58:53;102447.34;;;1.06;100.00
55070;BME280;40967;52.070;8.596;2023-02-14T08:01:19;102436.91;;;1.29;100.00
55070;BME280;40967;52.070;8.596;2023-02-14T08:03:45;102437.47;;;1.56;100.00
55070;BME280;40967;52.070;8.596;2023-02-14T08:06:17;102438.66;;;1.78;100.00
55070;BME280;40967;52.070;8.596;2023-02-14T08:08:43;102442.53;;;2.07;100.00
55070;BME280;40967;52.070;8.596;2023-02-14T08:11:09;102442.88;;;2.28;100.00
55070;BME280;40967;52.070;8.596;2023-02-14T08:13:35;102424.28;;;2.43;100.00
55070;BME280;40967;52.070;8.596;2023-02-14T08:16:00;102426.38;;;2.72;100.00
55070;BME280;40967;52.070;8.596;2023-02-14T08:18:30;102425.47;;;2.95;100.00
55070;BME280;40967;52.070;8.596;2023-02-14T08:20:56;102428.72;;;3.21;100.00
55070;BME280;40967;52.070;8.596;2023-02-14T08:23:22;102434.06;;;3.52;100.00
55070;BME280;40967;52.070;8.596;2023-02-14T08:25:48;102426.69;;;3.77;100.00
55070;BME280;40967;52.070;8.596;2023-02-14T08:28:21;102420.00;;;3.95;100.00
55070;BME280;40967;52.070;8.596;2023-02-14T08:31:02;102424.06;;;4.28;100.00
55070;BME280;40967;52.070;8.596;2023-02-14T08:33:51;102429.13;;;4.60;100.00
55070;BME280;40967;52.070;8.596;2023-02-14T08:36:21;102428.88;;;4.85;100.00
55070;BME280;40967;52.070;8.596;2023-02-14T08:38:47;102422.94;;;5.04;100.00
55070;BME280;40967;52.070;8.596;2023-02-14T08:41:16;102424.91;;;5.31;100.00
55070;BME280;40967;52.070;8.596;2023-02-14T08:43:43;102421.88;;;5.55;100.00
55070;BME280;40967;52.070;8.596;2023-02-14T08:46:09;102423.56;;;5.77;100.00
55070;BME280;40967;52.070;8.596;2023-02-14T08:48:36;102424.25;;;6.00;100.00
55070;BME280;40967;52.070;8.596;2023-02-14T08:51:10;102412.81;;;6.19;98.97
55070;BME280;40967;52.070;8.596;2023-02-14T08:53:37;102418.81;;;6.42;98.44
55070;BME280;40967;52.070;8.596;2023-02-14T08:56:07;102416.94;;;6.70;97.73
55070;BME280;40967;52.070;8.596;2023-02-14T08:58:34;102411.63;;;6.90;96.48
55070;BME280;40967;52.070;8.596;2023-02-14T09:03:34;102414.13;;;7.39;95.00
55070;BME280;40967;52.070;8.596;2023-02-14T09:06:07;102415.25;;;7.57;93.87
55070;BME280;40967;52.070;8.596;2023-02-14T09:08:34;102411.75;;;7.76;93.80
55070;BME280;40967;52.070;8.596;2023-02-14T09:11:18;102406.97;;;7.98;92.29
55070;BME280;40967;52.070;8.596;2023-02-14T09:13:45;102405.75;;;8.20;90.94
55070;BME280;40967;52.070;8.596;2023-02-14T09:16:12;102396.22;;;8.37;89.07
55070;BME280;40967;52.070;8.596;2023-02-14T09:18:38;102412.84;;;8.41;88.28
55070;BME280;40967;52.070;8.596;2023-02-14T09:21:08;102413.47;;;8.36;88.68
55070;BME280;40967;52.070;8.596;2023-02-14T09:23:34;102407.25;;;8.42;89.60
55070;BME280;40967;52.070;8.596;2023-02-14T09:26:01;102404.50;;;8.55;89.20
55070;BME280;40967;52.070;8.596;2023-02-14T09:28:27;102406.78;;;8.71;88.74
55070;BME280;40967;52.070;8.596;2023-02-14T09:30:52;102405.69;;;8.85;88.57
55070;BME280;40967;52.070;8.596;2023-02-14T09:33:18;102406.69;;;8.97;87.56
55070;BME280;40967;52.070;8.596;2023-02-14T09:35:43;102404.16;;;9.09;86.94
55070;BME280;40967;52.070;8.596;2023-02-14T09:38:09;102406.78;;;9.29;86.22
55070;BME280;40967;52.070;8.596;2023-02-14T09:40:35;102407.78;;;9.41;85.20
55070;BME280;40967;52.070;8.596;2023-02-14T09:43:28;102407.28;;;9.57;84.77
55070;BME280;40967;52.070;8.596;2023-02-14T09:45:58;102396.97;;;9.72;83.80
55070;BME280;40967;52.070;8.596;2023-02-14T09:48:35;102391.41;;;9.91;83.21
55070;BME280;40967;52.070;8.596;2023-02-14T09:51:04;102407.53;;;10.17;83.25
55070;BME280;40967;52.070;8.596;2023-02-14T09:53:33;102398.88;;;10.27;82.30
55070;BME280;40967;52.070;8.596;2023-02-14T09:59:11;102391.63;;;10.64;80.42
55070;BME280;40967;52.070;8.596;2023-02-14T10:01:42;102388.41;;;10.91;80.24
55070;BME280;40967;52.070;8.596;2023-02-14T10:06:55;102376.97;;;11.37;77.62
55070;BME280;40967;52.070;8.596;2023-02-14T10:11:49;102377.25;;;11.47;78.47
55070;BME280;40967;52.070;8.596;2023-02-14T10:14:20;102367.94;;;11.55;77.59
55070;BME280;40967;52.070;8.596;2023-02-14T10:17:13;102384.63;;;11.88;76.67
55070;BME280;40967;52.070;8.596;2023-02-14T10:19:43;102384.09;;;12.09;75.63
55070;BME280;40967;52.070;8.596;2023-02-14T10:22:22;102371.31;;;12.32;74.74
55070;BME280;40967;52.070;8.596;2023-02-14T10:24:54;102377.25;;;12.52;73.88
55070;BME280;40967;52.070;8.596;2023-02-14T10:27:33;102370.25;;;12.68;72.59
55070;BME280;40967;52.070;8.596;2023-02-14T10:29:59;102366.31;;;12.87;71.98
55070;BME280;40967;52.070;8.596;2023-02-14T10:34:55;102362.25;;;13.13;70.66
55070;BME280;40967;52.070;8.596;2023-02-14T10:40:24;102355.56;;;13.32;70.14
55070;BME280;40967;52.070;8.596;2023-02-14T10:43:25;102356.00;;;13.40;69.17
55070;BME280;40967;52.070;8.596;2023-02-14T10:46:03;102358.91;;;13.50;69.28
55070;BME280;40967;52.070;8.596;2023-02-14T10:54:25;102353.66;;;13.94;69.20
55070;BME280;40967;52.070;8.596;2023-02-14T10:56:59;102348.97;;;14.06;68.28
55070;BME280;40967;52.070;8.596;2023-02-14T10:59:42;102357.34;;;14.16;67.63
55070;BME280;40967;52.070;8.596;2023-02-14T11:02:13;102351.69;;;14.22;67.19
55070;BME280;40967;52.070;8.596;2023-02-14T11:04:39;102341.53;;;14.34;66.84
55070;BME280;40967;52.070;8.596;2023-02-14T11:07:17;102344.56;;;14.54;66.59
55070;BME280;40967;52.070;8.596;2023-02-14T11:09:44;102328.41;;;14.69;66.24
55070;BME280;40967;52.070;8.596;2023-02-14T11:12:10;102333.16;;;14.79;65.27
55070;BME280;40967;52.070;8.596;2023-02-14T11:14:38;102335.78;;;14.91;65.12
55070;BME280;40967;52.070;8.596;2023-02-14T11:20:03;102330.38;;;14.96;64.17
55070;BME280;40967;52.070;8.596;2023-02-14T11:22:33;102327.91;;;14.94;64.93
55070;BME280;40967;52.070;8.596;2023-02-14T11:25:03;102319.19;;;14.97;65.06
55070;BME280;40967;52.070;8.596;2023-02-14T11:27:30;102318.03;;;15.15;64.30
55070;BME280;40967;52.070;8.596;2023-02-14T11:29:57;102309.34;;;15.23;64.34
55070;BME280;40967;52.070;8.596;2023-02-14T11:32:28;102317.41;;;15.34;63.97
55070;BME280;40967;52.070;8.596;2023-02-14T11:34:59;102311.03;;;15.50;64.05
55070;BME280;40967;52.070;8.596;2023-02-14T11:37:48;102300.19;;;15.60;63.63
55070;BME280;40967;52.070;8.596;2023-02-14T11:40:36;102300.97;;;15.82;62.65
55070;BME280;40967;52.070;8.596;2023-02-14T11:45:39;102286.81;;;15.96;60.75
55070;BME280;40967;52.070;8.596;2023-02-14T11:50:41;102278.66;;;16.06;60.67
55070;BME280;40967;52.070;8.596;2023-02-14T11:53:12;102269.94;;;16.09;60.46
55070;BME280;40967;52.070;8.596;2023-02-14T11:55:50;102270.41;;;16.01;60.97
55070;BME280;40967;52.070;8.596;2023-02-14T11:58:36;102266.03;;;16.00;60.99
55070;BME280;40967;52.070;8.596;2023-02-14T12:01:04;102267.00;;;16.20;60.50
55070;BME280;40967;52.070;8.596;2023-02-14T12:03:37;102259.69;;;16.36;60.35
55070;BME280;40967;52.070;8.596;2023-02-14T12:06:07;102258.09;;;16.45;59.78
55070;BME280;40967;52.070;8.596;2023-02-14T12:08:34;102254.09;;;16.57;58.66
55070;BME280;40967;52.070;8.596;2023-02-14T12:11:10;102260.94;;;16.65;58.45
55070;BME280;40967;52.070;8.596;2023-02-14T12:13:50;102256.03;;;16.67;58.01
55070;BME280;40967;52.070;8.596;2023-02-14T12:16:23;102242.84;;;16.59;58.36
55070;BME280;40967;52.070;8.596;2023-02-14T12:19:04;102253.28;;;16.62;58.33
55070;BME280;40967;52.070;8.596;2023-02-14T12:22:07;102242.28;;;16.57;59.30
55070;BME280;40967;52.070;8.596;2023-02-14T12:27:29;102234.69;;;16.74;57.75
55070;BME280;40967;52.070;8.596;2023-02-14T12:30:08;102241.81;;;16.75;57.15
55070;BME280;40967;52.070;8.596;2023-02-14T12:32:53;102238.00;;;16.76;56.80
55070;BME280;40967;52.070;8.596;2023-02-14T12:43:50;102215.81;;;16.92;56.24
55070;BME280;40967;52.070;8.596;2023-02-14T12:51:23;102196.91;;;17.01;57.14
55070;BME280;40967;52.070;8.596;2023-02-14T12:59:48;102176.91;;;17.16;55.47
55070;BME280;40967;52.070;8.596;2023-02-14T13:05:12;102181.06;;;17.18;55.49
55070;BME280;40967;52.070;8.596;2023-02-14T13:08:05;102172.53;;;17.20;55.64
55070;BME280;40967;52.070;8.596;2023-02-14T13:10:57;102172.81;;;17.13;55.02
55070;BME280;40967;52.070;8.596;2023-02-14T13:16:21;102171.16;;;17.02;55.81
55070;BME280;40967;52.070;8.596;2023-02-14T13:18:54;102161.53;;;16.99;56.44
55070;BME280;40967;52.070;8.596;2023-02-14T13:21:25;102163.44;;;16.94;56.12
55070;BME280;40967;52.070;8.596;2023-02-14T13:24:03;102151.41;;;16.95;57.09
55070;BME280;40967;52.070;8.596;2023-02-14T13:26:35;102144.25;;;16.94;56.58
55070;BME280;40967;52.070;8.596;2023-02-14T13:29:08;102147.00;;;16.94;56.03
55070;BME280;40967;52.070;8.596;2023-02-14T13:31:36;102132.47;;;16.93;55.19
55070;BME280;40967;52.070;8.596;2023-02-14T13:36:53;102129.16;;;16.71;55.06
55070;BME280;40967;52.070;8.596;2023-02-14T13:39:28;102139.03;;;16.77;54.71
55070;BME280;40967;52.070;8.596;2023-02-14T13:41:56;102139.84;;;16.68;54.52
55070;BME280;40967;52.070;8.596;2023-02-14T13:44:40;102137.59;;;16.55;54.76
55070;BME280;40967;52.070;8.596;2023-02-14T13:47:06;102127.75;;;16.54;54.89
55070;BME280;40967;52.070;8.596;2023-02-14T13:49:46;102123.06;;;16.49;54.76
55070;BME280;40967;52.070;8.596;2023-02-14T13:52:43;102118.91;;;16.42;54.80
55070;BME280;40967;52.070;8.596;2023-02-14T13:55:18;102115.84;;;16.33;56.55
55070;BME280;40967;52.070;8.596;2023-02-14T13:57:44;102115.84;;;16.33;57.09
55070;BME280;40967;52.070;8.596;2023-02-14T14:02:53;102118.59;;;16.33;56.55
55070;BME280;40967;52.070;8.596;2023-02-14T14:18:49;102095.50;;;16.09;57.03
55070;BME280;40967;52.070;8.596;2023-02-14T14:21:33;102103.19;;;16.12;57.84
55070;BME280;40967;52.070;8.596;2023-02-14T14:26:42;102101.53;;;16.11;58.70
55070;BME280;40967;52.070;8.596;2023-02-14T14:29:29;102106.75;;;16.18;59.16
55070;BME280;40967;52.070;8.596;2023-02-14T14:31:54;102103.50;;;16.21;59.25
55070;BME280;40967;52.070;8.596;2023-02-14T14:34:28;102112.53;;;16.21;58.43
55070;BME280;40967;52.070;8.596;2023-02-14T14:37:14;102091.13;;;16.08;58.36
55070;BME280;40967;52.070;8.596;2023-02-14T14:39:40;102100.19;;;16.14;58.40
55070;BME280;40967;52.070;8.596;2023-02-14T14:42:15;102095.22;;;16.06;59.25
55070;BME280;40967;52.070;8.596;2023-02-14T14:44:50;102098.50;;;16.08;59.60
55070;BME280;40967;52.070;8.596;2023-02-14T14:47:22;102094.91;;;16.02;59.06
55070;BME280;40967;52.070;8.596;2023-02-14T14:49:50;102085.59;;;15.93;58.61
55070;BME280;40967;52.070;8.596;2023-02-14T14:52:42;102081.41;;;15.75;58.50
55070;BME280;40967;52.070;8.596;2023-02-14T14:55:23;102074.47;;;15.58;58.71
55070;BME280;40967;52.070;8.596;2023-02-14T14:58:00;102071.09;;;15.41;58.82
55070;BME280;40967;52.070;8.596;2023-02-14T15:00:36;102080.00;;;15.31;59.16
55070;BME280;40967;52.070;8.596;2023-02-14T15:05:37;102072.69;;;15.05;60.00
55070;BME280;40967;52.070;8.596;2023-02-14T15:08:20;102068.72;;;14.86;59.90